Time;durP1;ratioP1;P1;durP2;ratioP2;P2;SDS_P1;SDS_P2;PMS_P1;PMS_P2;Temp;Humidity;BMP_temperature;BMP_pressure;BME280_temperature;BME280_humidity;BME280_pressure;Samples;Min_cycle;Max_cycle;Signal;HPM_P1;HPM_P2
2021/04/03 00:00:40;;;;;;;6.63;3.63;;;;;;;;;;5074288;28;20035;-78
2021/04/03 00:03:07;;;;;;;4.35;2.97;;;;;;;;;;5056599;28;20372;-78
2021/04/03 00:05:33;;;;;;;3.45;2.40;;;;;;;;;;5056293;28;20024;-78
2021/04/03 00:07:59;;;;;;;6.20;2.95;;;;;;;;;;5074231;28;20020;-78
2021/04/03 00:10:30;;;;;;;5.40;3.20;;;;;;;;;;5074410;28;20029;-78
2021/04/03 00:12:57;;;;;;;4.95;3.25;;;;;;;;;;5056550;28;20048;-78
2021/04/03 00:15:24;;;;;;;5.85;3.00;;;;;;;;;;5056116;28;20515;-78
2021/04/03 00:17:50;;;;;;;4.88;3.10;;;;;;;;;;5074334;28;20479;-78
2021/04/03 00:20:18;;;;;;;8.48;3.20;;;;;;;;;;5074502;28;20028;-78
2021/04/03 00:22:45;;;;;;;6.15;3.78;;;;;;;;;;5074779;28;20017;-78
2021/04/03 00:25:12;;;;;;;6.93;3.40;;;;;;;;;;5074289;28;20476;-78
2021/04/03 00:27:38;;;;;;;8.45;3.50;;;;;;;;;;5074388;28;20025;-78
2021/04/03 00:30:15;;;;;;;8.63;3.63;;;;;;;;;;5074553;28;20033;-79
2021/04/03 00:32:52;;;;;;;6.97;3.38;;;;;;;;;;5074354;28;20024;-78
2021/04/03 00:35:28;;;;;;;8.82;3.78;;;;;;;;;;5074356;28;20028;-78
2021/04/03 00:37:56;;;;;;;6.88;3.53;;;;;;;;;;5056041;28;20060;-78
2021/04/03 00:40:23;;;;;;;7.30;3.65;;;;;;;;;;5055860;28;20035;-78
2021/04/03 00:42:50;;;;;;;8.07;3.78;;;;;;;;;;5073922;28;20025;-78
2021/04/03 00:45:17;;;;;;;6.35;3.40;;;;;;;;;;5074002;28;20075;-78
2021/04/03 00:47:43;;;;;;;5.15;3.05;;;;;;;;;;5074039;28;20027;-78
2021/04/03 00:50:11;;;;;;;5.47;3.38;;;;;;;;;;5074051;28;20428;-78
2021/04/03 00:52:37;;;;;;;5.95;3.35;;;;;;;;;;5073911;28;20099;-78
2021/04/03 00:55:08;;;;;;;5.50;3.38;;;;;;;;;;5073854;28;20601;-78
2021/04/03 00:57:34;;;;;;;6.63;3.40;;;;;;;;;;5073580;28;20044;-78
2021/04/03 01:00:00;;;;;;;4.20;3.15;;;;;;;;;;5073635;28;20056;-78
2021/04/03 01:02:26;;;;;;;11.27;3.65;;;;;;;;;;5055268;28;20020;-78
2021/04/03 01:04:53;;;;;;;6.40;3.30;;;;;;;;;;5076721;28;20032;-78
2021/04/03 01:07:19;;;;;;;7.10;3.38;;;;;;;;;;5077955;28;20091;-78
2021/04/03 01:09:45;;;;;;;8.25;3.78;;;;;;;;;;5077315;28;20063;-78
2021/04/03 01:12:40;;;;;;;7.40;3.60;;;;;;;;;;5076997;28;20021;-78
2021/04/03 01:15:27;;;;;;;8.90;3.38;;;;;;;;;;5023175;28;20049;-78
2021/04/03 01:17:59;;;;;;;10.23;3.55;;;;;;;;;;5066918;28;20082;-78
2021/04/03 01:20:32;;;;;;;7.47;3.35;;;;;;;;;;5059261;28;20024;-77
2021/04/03 01:22:58;;;;;;;9.18;3.47;;;;;;;;;;5077354;28;20021;-77
2021/04/03 01:25:43;;;;;;;8.00;3.22;;;;;;;;;;5077160;28;20024;-78
2021/04/03 01:28:30;;;;;;;7.18;3.17;;;;;;;;;;5059063;28;20024;-78
2021/04/03 01:30:56;;;;;;;10.60;3.13;;;;;;;;;;5077362;28;20028;-78
2021/04/03 01:33:24;;;;;;;7.60;3.58;;;;;;;;;;5076839;28;20517;-78
2021/04/03 01:36:03;;;;;;;6.60;3.00;;;;;;;;;;5077257;28;20043;-78
2021/04/03 01:38:32;;;;;;;10.43;3.13;;;;;;;;;;5077032;28;20016;-78
2021/04/03 01:40:59;;;;;;;8.73;3.75;;;;;;;;;;5076587;28;20025;-78
2021/04/03 01:43:27;;;;;;;8.48;3.17;;;;;;;;;;5059088;28;20028;-78
2021/04/03 01:45:55;;;;;;;9.43;4.18;;;;;;;;;;5059151;28;20048;-78
2021/04/03 01:48:22;;;;;;;9.10;5.07;;;;;;;;;;5077112;28;20028;-78
2021/04/03 01:50:48;;;;;;;11.60;6.57;;;;;;;;;;5059143;28;20027;-78
2021/04/03 01:53:14;;;;;;;13.45;4.38;;;;;;;;;;5076659;28;20112;-78
2021/04/03 01:55:41;;;;;;;8.95;4.38;;;;;;;;;;5059540;28;20029;-78
2021/04/03 01:58:07;;;;;;;7.68;3.60;;;;;;;;;;5059013;28;20560;-78
2021/04/03 02:00:34;;;;;;;8.02;3.65;;;;;;;;;;5076668;28;20024;-78
2021/04/03 02:03:03;;;;;;;8.82;3.50;;;;;;;;;;5076694;28;20029;-78
2021/04/03 02:05:29;;;;;;;7.10;3.70;;;;;;;;;;5076571;28;20033;-78
2021/04/03 02:07:56;;;;;;;9.25;3.10;;;;;;;;;;5076494;28;20027;-78
2021/04/03 02:10:29;;;;;;;6.78;3.50;;;;;;;;;;5076697;28;20078;-78
2021/04/03 02:12:55;;;;;;;8.50;3.53;;;;;;;;;;5058288;28;20570;-77
2021/04/03 02:15:25;;;;;;;9.00;3.50;;;;;;;;;;5066200;28;20443;-78
2021/04/03 02:17:51;;;;;;;13.50;3.75;;;;;;;;;;5056673;28;20029;-78
2021/04/03 02:20:17;;;;;;;7.13;3.50;;;;;;;;;;5056613;28;20095;-78
2021/04/03 02:22:44;;;;;;;7.63;3.45;;;;;;;;;;5056164;28;20053;-78
2021/04/03 02:25:11;;;;;;;11.82;3.67;;;;;;;;;;5038122;28;20021;-78
2021/04/03 02:27:38;;;;;;;8.55;3.67;;;;;;;;;;5056085;28;20473;-78
2021/04/03 02:30:12;;;;;;;9.07;3.08;;;;;;;;;;5056016;28;20032;-78
2021/04/03 02:32:40;;;;;;;9.43;3.92;;;;;;;;;;5038275;28;20017;-78
2021/04/03 02:35:06;;;;;;;13.40;4.18;;;;;;;;;;5038324;28;20480;-78
2021/04/03 02:37:32;;;;;;;11.27;3.83;;;;;;;;;;5056215;28;20111;-78
2021/04/03 02:39:58;;;;;;;11.15;4.03;;;;;;;;;;5059875;28;20491;-78
2021/04/03 02:42:25;;;;;;;15.93;4.43;;;;;;;;;;5075424;28;20027;-78
2021/04/03 02:44:55;;;;;;;18.15;5.07;;;;;;;;;;5075789;28;20051;-78
2021/04/03 02:47:27;;;;;;;15.10;4.93;;;;;;;;;;5076033;28;20025;-78
2021/04/03 02:49:56;;;;;;;19.05;4.38;;;;;;;;;;5057769;28;20036;-78
2021/04/03 02:52:23;;;;;;;15.10;4.68;;;;;;;;;;5075405;28;20021;-78
2021/04/03 02:54:50;;;;;;;14.75;4.65;;;;;;;;;;5075635;28;20479;-78
2021/04/03 02:57:16;;;;;;;15.77;4.53;;;;;;;;;;5075159;28;20032;-77
2021/04/03 02:59:54;;;;;;;14.70;4.18;;;;;;;;;;5063874;28;20033;-78
2021/04/03 03:02:21;;;;;;;11.00;4.00;;;;;;;;;;5036940;28;20029;-77
2021/04/03 03:04:49;;;;;;;12.20;4.30;;;;;;;;;;5055378;28;20033;-78
2021/04/03 03:07:15;;;;;;;18.13;5.55;;;;;;;;;;5055307;28;20021;-78
2021/04/03 03:09:42;;;;;;;17.30;4.75;;;;;;;;;;5055241;28;20041;-78
2021/04/03 03:12:11;;;;;;;13.38;4.28;;;;;;;;;;5054968;28;20021;-78
2021/04/03 03:14:38;;;;;;;16.10;4.35;;;;;;;;;;5057453;28;20040;-78
2021/04/03 03:17:04;;;;;;;13.65;4.93;;;;;;;;;;5057112;28;20063;-78
2021/04/03 03:19:30;;;;;;;14.73;4.50;;;;;;;;;;5075718;28;20025;-78
2021/04/03 03:21:57;;;;;;;18.52;4.03;;;;;;;;;;5074475;28;20044;-78
2021/04/03 03:24:23;;;;;;;12.60;4.38;;;;;;;;;;5074993;28;20020;-78
2021/04/03 03:26:50;;;;;;;12.02;4.20;;;;;;;;;;5057434;28;20021;-78
2021/04/03 03:29:16;;;;;;;19.35;4.10;;;;;;;;;;5075413;28;20031;-78
2021/04/03 03:31:43;;;;;;;19.67;4.43;;;;;;;;;;5075219;28;20048;-78
2021/04/03 03:34:10;;;;;;;15.82;3.88;;;;;;;;;;5074745;28;20441;-78
2021/04/03 03:36:40;;;;;;;15.65;4.55;;;;;;;;;;5074746;28;20029;-78
2021/04/03 03:39:07;;;;;;;15.40;4.53;;;;;;;;;;5074698;28;20032;-78
2021/04/03 03:41:36;;;;;;;18.38;4.63;;;;;;;;;;5074819;28;20033;-78
2021/04/03 03:44:03;;;;;;;13.57;4.20;;;;;;;;;;5056574;28;20029;-78
2021/04/03 03:46:29;;;;;;;15.70;3.90;;;;;;;;;;5074620;28;20028;-78
2021/04/03 03:48:55;;;;;;;18.35;4.25;;;;;;;;;;5074848;28;20111;-78
2021/04/03 03:51:21;;;;;;;21.92;4.63;;;;;;;;;;5074452;28;20020;-78
2021/04/03 03:53:48;;;;;;;18.25;4.20;;;;;;;;;;5074185;28;20070;-78
2021/04/03 03:56:15;;;;;;;15.52;4.95;;;;;;;;;;5074618;28;20565;-78
2021/04/03 03:58:41;;;;;;;13.35;3.72;;;;;;;;;;5074460;28;20035;-78
2021/04/03 04:01:07;;;;;;;19.63;5.10;;;;;;;;;;5056495;28;20115;-78
2021/04/03 04:03:34;;;;;;;17.92;4.72;;;;;;;;;;5074132;28;20024;-78
2021/04/03 04:06:00;;;;;;;16.13;4.47;;;;;;;;;;5074552;28;20025;-78
2021/04/03 04:08:26;;;;;;;17.40;4.60;;;;;;;;;;5074459;28;20031;-78
2021/04/03 04:10:52;;;;;;;17.08;4.28;;;;;;;;;;5074587;28;20417;-78
2021/04/03 04:13:19;;;;;;;17.73;4.35;;;;;;;;;;5064619;28;20389;-78
2021/04/03 04:15:45;;;;;;;13.50;4.28;;;;;;;;;;5054387;28;20112;-78
2021/04/03 04:18:11;;;;;;;22.63;4.50;;;;;;;;;;5054504;28;20458;-78
2021/04/03 04:20:37;;;;;;;17.65;4.63;;;;;;;;;;5036784;28;20087;-78
2021/04/03 04:23:03;;;;;;;15.38;4.38;;;;;;;;;;5037001;28;20565;-78
2021/04/03 04:25:29;;;;;;;23.45;5.80;;;;;;;;;;5054973;28;20075;-78
2021/04/03 04:27:55;;;;;;;27.02;5.72;;;;;;;;;;5055583;28;20077;-79
2021/04/03 04:30:22;;;;;;;97.15;10.40;;;;;;;;;;5055936;28;20027;-79
2021/04/03 04:32:49;;;;;;;16.30;4.70;;;;;;;;;;5055883;28;20091;-79
2021/04/03 04:35:15;;;;;;;20.33;4.72;;;;;;;;;;5055988;28;20021;-79
2021/04/03 04:37:42;;;;;;;18.73;5.13;;;;;;;;;;5055171;28;20029;-79
2021/04/03 04:40:09;;;;;;;22.38;5.45;;;;;;;;;;5055373;28;20025;-79
2021/04/03 04:42:35;;;;;;;24.75;4.78;;;;;;;;;;5055750;28;20475;-79
2021/04/03 04:45:02;;;;;;;14.02;4.60;;;;;;;;;;5037371;28;20447;-79
2021/04/03 04:47:28;;;;;;;10.70;3.92;;;;;;;;;;5055664;28;20018;-79
2021/04/03 04:49:54;;;;;;;17.50;4.95;;;;;;;;;;5055583;28;20532;-79
2021/04/03 04:52:20;;;;;;;20.77;5.82;;;;;;;;;;5055218;28;20028;-79
2021/04/03 04:54:46;;;;;;;26.50;5.78;;;;;;;;;;5037390;28;20032;-79
2021/04/03 04:57:12;;;;;;;23.30;6.95;;;;;;;;;;5055328;28;20090;-79
2021/04/03 04:59:39;;;;;;;23.30;5.13;;;;;;;;;;5055816;28;20047;-79
2021/04/03 05:02:05;;;;;;;21.30;4.95;;;;;;;;;;5055624;28;20373;-79
2021/04/03 05:04:31;;;;;;;24.20;5.63;;;;;;;;;;5055434;28;20049;-79
2021/04/03 05:06:57;;;;;;;18.23;4.78;;;;;;;;;;5054977;28;20078;-79
2021/04/03 05:09:23;;;;;;;10.32;4.20;;;;;;;;;;5055508;28;20025;-79
2021/04/03 05:11:49;;;;;;;21.23;4.68;;;;;;;;;;5055219;28;20033;-79
2021/04/03 05:14:15;;;;;;;17.80;5.57;;;;;;;;;;5072661;28;20120;-79
2021/04/03 05:16:41;;;;;;;23.88;6.53;;;;;;;;;;5075140;28;20029;-79
2021/04/03 05:19:07;;;;;;;23.05;6.07;;;;;;;;;;5075199;28;20020;-79
2021/04/03 05:21:33;;;;;;;39.17;8.30;;;;;;;;;;5074817;28;20483;-79
2021/04/03 05:23:59;;;;;;;18.67;5.70;;;;;;;;;;5075380;28;20031;-79
2021/04/03 05:26:26;;;;;;;14.75;5.03;;;;;;;;;;5056841;28;20028;-79
2021/04/03 05:28:52;;;;;;;17.42;4.97;;;;;;;;;;5075124;28;20035;-79
2021/04/03 05:31:20;;;;;;;15.63;4.93;;;;;;;;;;5056806;28;20552;-79
2021/04/03 05:33:47;;;;;;;18.23;5.15;;;;;;;;;;5074645;28;20086;-79
2021/04/03 05:36:13;;;;;;;27.40;6.75;;;;;;;;;;5056723;28;20028;-79
2021/04/03 05:38:39;;;;;;;17.73;5.65;;;;;;;;;;5074468;28;20046;-79
2021/04/03 05:41:05;;;;;;;20.80;5.68;;;;;;;;;;5075100;28;20028;-79
2021/04/03 05:43:32;;;;;;;15.13;5.10;;;;;;;;;;5057114;28;20032;-79
2021/04/03 05:45:58;;;;;;;18.85;5.70;;;;;;;;;;5075328;28;20391;-79
2021/04/03 05:48:24;;;;;;;26.63;5.57;;;;;;;;;;5056861;28;20029;-79
2021/04/03 05:50:54;;;;;;;19.98;5.00;;;;;;;;;;5076776;28;20399;-79
2021/04/03 05:53:21;;;;;;;31.77;6.75;;;;;;;;;;5078975;28;20027;-79
2021/04/03 05:55:50;;;;;;;21.45;5.45;;;;;;;;;;5078434;28;20435;-79
2021/04/03 05:58:16;;;;;;;24.83;5.13;;;;;;;;;;5060704;28;20495;-79
2021/04/03 06:00:43;;;;;;;22.23;5.88;;;;;;;;;;5077835;28;20088;-79
2021/04/03 06:03:09;;;;;;;31.00;5.70;;;;;;;;;;5060152;28;20031;-79
2021/04/03 06:05:35;;;;;;;16.50;5.47;;;;;;;;;;5078208;28;20054;-79
2021/04/03 06:08:01;;;;;;;21.83;5.22;;;;;;;;;;5078114;28;20096;-79
2021/04/03 06:10:27;;;;;;;16.83;4.88;;;;;;;;;;5078333;28;20029;-79
2021/04/03 06:12:53;;;;;;;20.92;5.63;;;;;;;;;;5060214;28;20578;-79
2021/04/03 06:15:25;;;;;;;19.33;5.18;;;;;;;;;;5078196;28;20029;-79
2021/04/03 06:17:55;;;;;;;30.23;5.57;;;;;;;;;;5078064;28;20032;-79
2021/04/03 06:20:34;;;;;;;24.02;6.50;;;;;;;;;;5078403;28;20486;-79
2021/04/03 06:23:01;;;;;;;25.38;5.47;;;;;;;;;;5077523;28;20055;-79
2021/04/03 06:25:27;;;;;;;18.45;5.15;;;;;;;;;;5077832;28;20028;-79
2021/04/03 06:28:05;;;;;;;15.77;5.28;;;;;;;;;;5078303;28;20029;-79
2021/04/03 06:30:33;;;;;;;17.27;5.05;;;;;;;;;;5077475;28;20028;-79
2021/04/03 06:33:12;;;;;;;16.13;4.50;;;;;;;;;;5059602;28;20032;-79
2021/04/03 06:35:38;;;;;;;22.63;6.25;;;;;;;;;;5077862;28;20402;-79
2021/04/03 06:38:24;;;;;;;28.85;6.35;;;;;;;;;;5058676;28;20395;-77
2021/04/03 06:40:51;;;;;;;20.02;4.90;;;;;;;;;;5074849;28;20035;-77
2021/04/03 06:43:17;;;;;;;14.93;4.22;;;;;;;;;;5056848;28;20453;-77
2021/04/03 06:45:47;;;;;;;18.02;4.43;;;;;;;;;;5074844;28;20132;-77
2021/04/03 06:48:14;;;;;;;19.63;4.07;;;;;;;;;;5074499;28;20029;-77
2021/04/03 06:50:40;;;;;;;15.35;4.47;;;;;;;;;;5056861;28;20033;-77
2021/04/03 06:53:17;;;;;;;12.73;2.90;;;;;;;;;;5074462;28;20299;-77
2021/04/03 06:55:44;;;;;;;13.48;3.15;;;;;;;;;;5056289;28;20123;-77
2021/04/03 06:58:11;;;;;;;11.32;2.85;;;;;;;;;;5074197;28;20021;-77
2021/04/03 07:00:38;;;;;;;10.45;2.63;;;;;;;;;;5074132;28;20447;-77
2021/04/03 07:03:13;;;;;;;9.70;2.13;;;;;;;;;;5074167;28;20024;-77
2021/04/03 07:05:40;;;;;;;11.18;2.67;;;;;;;;;;5074271;28;20025;-77
2021/04/03 07:08:07;;;;;;;11.52;2.63;;;;;;;;;;5074080;28;20020;-77
2021/04/03 07:10:34;;;;;;;11.82;2.47;;;;;;;;;;5074319;28;20033;-77
2021/04/03 07:13:00;;;;;;;13.43;2.90;;;;;;;;;;5055758;28;20076;-77
2021/04/03 07:15:27;;;;;;;15.00;2.60;;;;;;;;;;5074010;28;20062;-77
2021/04/03 07:17:53;;;;;;;10.23;2.47;;;;;;;;;;5073651;28;20024;-78
2021/04/03 07:20:20;;;;;;;13.95;3.38;;;;;;;;;;5074189;28;20036;-77
2021/04/03 07:22:47;;;;;;;14.25;3.50;;;;;;;;;;5073850;28;20442;-77
2021/04/03 07:25:13;;;;;;;16.08;3.50;;;;;;;;;;5074129;28;20485;-77
2021/04/03 07:27:45;;;;;;;15.38;3.70;;;;;;;;;;5073941;28;20013;-77
2021/04/03 07:30:11;;;;;;;17.77;4.25;;;;;;;;;;5056044;28;20279;-77
2021/04/03 07:32:42;;;;;;;12.65;3.03;;;;;;;;;;5073848;28;20025;-77
2021/04/03 07:35:15;;;;;;;31.05;4.95;;;;;;;;;;5073447;28;20541;-77
2021/04/03 07:37:42;;;;;;;16.17;3.42;;;;;;;;;;5073657;28;20376;-77
2021/04/03 07:40:08;;;;;;;20.63;4.28;;;;;;;;;;5073266;28;20120;-77
2021/04/03 07:42:35;;;;;;;13.90;3.75;;;;;;;;;;5073379;28;20025;-77
2021/04/03 07:45:03;;;;;;;14.48;3.90;;;;;;;;;;5073407;28;20032;-77
2021/04/03 07:47:29;;;;;;;15.98;5.70;;;;;;;;;;5073387;28;20032;-77
2021/04/03 07:49:55;;;;;;;40.83;5.80;;;;;;;;;;5073560;28;20395;-77
2021/04/03 07:52:40;;;;;;;16.38;4.45;;;;;;;;;;5055102;28;20091;-77
2021/04/03 07:55:26;;;;;;;16.75;4.57;;;;;;;;;;5055426;28;20123;-77
2021/04/03 07:57:52;;;;;;;11.70;4.10;;;;;;;;;;5059269;28;20036;-77
2021/04/03 08:00:27;;;;;;;15.80;4.20;;;;;;;;;;5073124;28;20032;-77
2021/04/03 08:02:53;;;;;;;20.05;3.67;;;;;;;;;;5055218;28;20051;-77
2021/04/03 08:05:20;;;;;;;18.48;3.78;;;;;;;;;;5072848;28;20118;-77
2021/04/03 08:07:46;;;;;;;16.30;4.68;;;;;;;;;;5073032;28;20027;-77
2021/04/03 08:10:19;;;;;;;11.32;3.65;;;;;;;;;;5073134;28;20025;-77
2021/04/03 08:12:45;;;;;;;16.60;4.25;;;;;;;;;;5054284;28;20044;-77
2021/04/03 08:15:12;;;;;;;11.15;3.33;;;;;;;;;;5072798;28;20025;-77
2021/04/03 08:17:38;;;;;;;16.13;3.53;;;;;;;;;;5055268;28;20494;-77
2021/04/03 08:20:06;;;;;;;22.33;4.85;;;;;;;;;;5073147;28;20391;-77
2021/04/03 08:22:32;;;;;;;27.35;5.10;;;;;;;;;;5054947;28;20099;-77
2021/04/03 08:24:59;;;;;;;21.23;6.22;;;;;;;;;;5073100;28;20380;-77
2021/04/03 08:27:32;;;;;;;19.10;4.82;;;;;;;;;;5054990;28;20031;-77
2021/04/03 08:29:58;;;;;;;12.07;5.00;;;;;;;;;;5073150;28;20063;-77
2021/04/03 08:32:24;;;;;;;20.25;5.40;;;;;;;;;;5072131;28;20033;-77
2021/04/03 08:34:50;;;;;;;13.07;4.22;;;;;;;;;;5054516;28;20032;-77
2021/04/03 08:37:16;;;;;;;16.20;3.55;;;;;;;;;;5072779;28;20056;-77
2021/04/03 08:39:42;;;;;;;12.45;3.83;;;;;;;;;;5054736;28;20094;-77
2021/04/03 08:42:08;;;;;;;10.98;3.70;;;;;;;;;;5072519;28;20399;-77
2021/04/03 08:44:35;;;;;;;14.93;3.00;;;;;;;;;;5072286;28;20044;-77
2021/04/03 08:47:05;;;;;;;13.95;3.25;;;;;;;;;;5054632;28;20032;-77
2021/04/03 08:49:38;;;;;;;11.38;3.45;;;;;;;;;;5072352;28;20031;-77
2021/04/03 08:52:06;;;;;;;9.02;2.80;;;;;;;;;;5072433;28;20389;-77
2021/04/03 08:54:35;;;;;;;10.63;3.38;;;;;;;;;;5072392;28;20476;-77
2021/04/03 08:57:01;;;;;;;16.10;3.67;;;;;;;;;;5053890;28;20021;-77
2021/04/03 08:59:28;;;;;;;15.60;3.30;;;;;;;;;;5072176;28;20024;-77
2021/04/03 09:01:55;;;;;;;11.15;3.03;;;;;;;;;;5072366;28;20103;-77
2021/04/03 09:04:23;;;;;;;17.45;4.18;;;;;;;;;;5072440;28;20078;-77
2021/04/03 09:06:52;;;;;;;11.90;3.00;;;;;;;;;;5054066;28;20112;-77
2021/04/03 09:09:22;;;;;;;15.63;3.28;;;;;;;;;;5071916;28;20479;-77
2021/04/03 09:11:56;;;;;;;14.20;3.17;;;;;;;;;;5072036;28;20047;-77
2021/04/03 09:14:26;;;;;;;16.33;3.15;;;;;;;;;;5054078;28;20071;-77
2021/04/03 09:16:52;;;;;;;12.25;3.17;;;;;;;;;;5072265;28;20024;-77
2021/04/03 09:19:25;;;;;;;9.90;2.85;;;;;;;;;;5072366;28;20040;-77
2021/04/03 09:21:51;;;;;;;13.55;3.83;;;;;;;;;;5071726;28;20132;-77
2021/04/03 09:24:34;;;;;;;12.07;3.70;;;;;;;;;;5054988;28;20128;-77
2021/04/03 09:27:12;;;;;;;13.20;3.28;;;;;;;;;;5076095;28;20487;-77
2021/04/03 09:29:38;;;;;;;13.48;2.95;;;;;;;;;;5075994;28;20023;-77
2021/04/03 09:32:05;;;;;;;13.23;3.58;;;;;;;;;;5075259;28;20036;-77
2021/04/03 09:34:32;;;;;;;12.70;2.65;;;;;;;;;;5057760;28;20028;-77
2021/04/03 09:37:10;;;;;;;9.93;2.72;;;;;;;;;;5057691;28;20356;-77
2021/04/03 09:39:44;;;;;;;13.43;2.65;;;;;;;;;;5057552;28;20409;-77
2021/04/03 09:42:10;;;;;;;;;;;;;;;;;;5057407;28;20047;-77
2021/04/03 09:44:36;;;;;;;9.93;2.47;;;;;;;;;;5076963;28;19904;-77
2021/04/03 09:47:02;;;;;;;8.45;2.60;;;;;;;;;;5075538;28;20027;-77
2021/04/03 09:49:28;;;;;;;11.45;2.40;;;;;;;;;;5075757;28;20052;-77
2021/04/03 09:51:56;;;;;;;10.18;3.30;;;;;;;;;;5056901;28;20024;-77
2021/04/03 09:54:22;;;;;;;9.65;2.67;;;;;;;;;;5057650;28;20127;-77
2021/04/03 09:56:49;;;;;;;10.15;2.65;;;;;;;;;;5075246;28;20033;-77
2021/04/03 09:59:15;;;;;;;12.43;2.25;;;;;;;;;;5075260;28;20039;-77
2021/04/03 10:01:41;;;;;;;12.10;2.60;;;;;;;;;;5074403;28;20025;-77
2021/04/03 10:04:07;;;;;;;8.02;2.38;;;;;;;;;;5075611;28;20051;-77
2021/04/03 10:06:33;;;;;;;10.18;3.05;;;;;;;;;;5075179;28;20056;-77
2021/04/03 10:08:59;;;;;;;8.82;2.45;;;;;;;;;;5075009;28;20031;-77
2021/04/03 10:11:26;;;;;;;11.63;2.40;;;;;;;;;;5074928;28;20027;-77
2021/04/03 10:13:52;;;;;;;10.63;2.50;;;;;;;;;;5074658;28;20049;-77
2021/04/03 10:16:18;;;;;;;9.25;2.30;;;;;;;;;;5075055;28;20510;-77
2021/04/03 10:18:44;;;;;;;10.95;3.40;;;;;;;;;;5075511;28;20028;-77
2021/04/03 10:21:11;;;;;;;12.40;3.05;;;;;;;;;;5056572;28;20029;-77
2021/04/03 10:23:37;;;;;;;15.13;3.38;;;;;;;;;;5074708;28;20112;-77
2021/04/03 10:26:03;;;;;;;15.55;3.60;;;;;;;;;;5074969;28;20111;-77
2021/04/03 10:28:29;;;;;;;12.00;3.83;;;;;;;;;;5075126;28;20016;-77
2021/04/03 10:30:55;;;;;;;15.00;4.80;;;;;;;;;;5074640;28;20081;-77
2021/04/03 10:33:22;;;;;;;11.27;4.10;;;;;;;;;;5074167;28;20021;-77
2021/04/03 10:35:48;;;;;;;9.48;2.95;;;;;;;;;;5074199;28;20033;-77
2021/04/03 10:38:14;;;;;;;10.30;2.60;;;;;;;;;;5057159;28;20025;-77
2021/04/03 10:40:40;;;;;;;9.05;3.10;;;;;;;;;;5074780;28;20562;-77
2021/04/03 10:43:06;;;;;;;12.80;2.83;;;;;;;;;;5074480;28;20028;-77
2021/04/03 10:45:32;;;;;;;17.70;3.40;;;;;;;;;;5074664;28;20032;-77
2021/04/03 10:47:58;;;;;;;9.98;2.72;;;;;;;;;;5056688;28;20020;-77
2021/04/03 10:50:24;;;;;;;8.82;2.80;;;;;;;;;;5075102;28;20113;-77
2021/04/03 10:52:50;;;;;;;11.85;2.60;;;;;;;;;;5074521;28;20036;-77
2021/04/03 10:55:16;;;;;;;10.43;2.40;;;;;;;;;;5075022;28;20041;-77
2021/04/03 10:57:42;;;;;;;11.43;3.00;;;;;;;;;;5056503;28;20024;-77
2021/04/03 11:00:09;;;;;;;10.20;2.33;;;;;;;;;;5074617;28;20029;-77
2021/04/03 11:02:35;;;;;;;7.38;2.10;;;;;;;;;;5074858;28;20049;-77
2021/04/03 11:05:02;;;;;;;5.82;2.25;;;;;;;;;;5075564;28;20067;-77
2021/04/03 11:07:28;;;;;;;7.65;2.55;;;;;;;;;;5075434;28;20051;-77
2021/04/03 11:09:54;;;;;;;3.85;1.67;;;;;;;;;;5075251;28;20445;-77
2021/04/03 11:12:20;;;;;;;6.38;1.83;;;;;;;;;;5074441;28;20070;-77
2021/04/03 11:14:46;;;;;;;11.20;2.20;;;;;;;;;;5075276;28;20071;-77
2021/04/03 11:17:12;;;;;;;12.10;2.50;;;;;;;;;;5074852;28;20024;-77
2021/04/03 11:19:38;;;;;;;5.70;2.15;;;;;;;;;;5075720;28;20024;-77
2021/04/03 11:22:06;;;;;;;4.43;1.75;;;;;;;;;;5074950;28;20156;-77
2021/04/03 11:24:33;;;;;;;5.82;2.03;;;;;;;;;;5075362;28;20035;-77
2021/04/03 11:27:00;;;;;;;8.00;2.33;;;;;;;;;;5074743;28;20023;-77
2021/04/03 11:29:26;;;;;;;8.77;1.98;;;;;;;;;;5075201;28;20086;-77
2021/04/03 11:31:52;;;;;;;6.47;2.15;;;;;;;;;;5074671;28;20104;-77
2021/04/03 11:34:18;;;;;;;5.78;1.55;;;;;;;;;;5057027;28;20426;-77
2021/04/03 11:36:44;;;;;;;5.25;2.00;;;;;;;;;;5074723;28;20027;-77
2021/04/03 11:39:10;;;;;;;9.38;2.55;;;;;;;;;;5074608;28;20108;-77
2021/04/03 11:41:37;;;;;;;5.78;1.70;;;;;;;;;;5074244;28;20430;-77
2021/04/03 11:44:03;;;;;;;4.32;1.30;;;;;;;;;;5055860;28;20039;-77
2021/04/03 11:46:29;;;;;;;2.55;1.40;;;;;;;;;;5073922;28;20016;-77
2021/04/03 11:48:56;;;;;;;5.07;1.42;;;;;;;;;;5056241;28;20078;-77
2021/04/03 11:51:22;;;;;;;6.80;1.90;;;;;;;;;;5074313;28;20025;-77
2021/04/03 11:53:50;;;;;;;5.30;2.33;;;;;;;;;;5074101;28;20021;-77
2021/04/03 11:56:16;;;;;;;5.70;2.10;;;;;;;;;;5056912;28;20044;-77
2021/04/03 11:58:42;;;;;;;3.08;1.67;;;;;;;;;;5074747;28;20558;-78
2021/04/03 12:01:08;;;;;;;5.63;2.03;;;;;;;;;;5074956;28;20025;-78
2021/04/03 12:03:34;;;;;;;5.60;1.33;;;;;;;;;;5074006;28;20426;-78
2021/04/03 12:06:00;;;;;;;6.65;1.40;;;;;;;;;;5057245;28;20024;-78
2021/04/03 12:08:26;;;;;;;5.55;1.50;;;;;;;;;;5074825;28;20028;-78
2021/04/03 12:10:52;;;;;;;4.05;1.70;;;;;;;;;;5074856;28;20535;-78
2021/04/03 12:13:18;;;;;;;4.80;1.30;;;;;;;;;;5074306;28;20037;-78
2021/04/03 12:15:44;;;;;;;5.65;2.00;;;;;;;;;;5074264;28;20060;-78
2021/04/03 12:18:12;;;;;;;4.00;1.38;;;;;;;;;;5074575;28;20510;-78
2021/04/03 12:20:38;;;;;;;7.45;1.60;;;;;;;;;;5074941;28;20032;-78
2021/04/03 12:23:04;;;;;;;8.15;2.10;;;;;;;;;;5074368;28;20474;-78
2021/04/03 12:25:30;;;;;;;5.20;1.90;;;;;;;;;;5074311;28;20024;-78
2021/04/03 12:27:56;;;;;;;7.30;2.40;;;;;;;;;;5055809;28;20029;-78
2021/04/03 12:30:22;;;;;;;4.78;1.90;;;;;;;;;;5056690;28;20511;-78
2021/04/03 12:32:48;;;;;;;6.22;1.83;;;;;;;;;;5073576;28;20028;-78
2021/04/03 12:35:14;;;;;;;3.08;1.88;;;;;;;;;;5074595;28;20027;-78
2021/04/03 12:37:40;;;;;;;7.57;1.70;;;;;;;;;;5074739;28;20024;-78
2021/04/03 12:40:07;;;;;;;5.43;1.60;;;;;;;;;;5074582;28;20044;-78
2021/04/03 12:42:33;;;;;;;6.10;1.45;;;;;;;;;;5057006;28;20043;-78
2021/04/03 12:45:03;;;;;;;4.32;1.83;;;;;;;;;;5074215;28;20020;-78
2021/04/03 12:47:29;;;;;;;3.88;1.60;;;;;;;;;;5074028;28;20025;-78
2021/04/03 12:49:55;;;;;;;3.80;1.52;;;;;;;;;;5074036;28;20082;-78
2021/04/03 12:52:21;;;;;;;6.95;1.80;;;;;;;;;;5073682;28;20025;-78
2021/04/03 12:54:48;;;;;;;5.32;1.58;;;;;;;;;;5073580;28;20024;-78
2021/04/03 12:57:14;;;;;;;7.75;1.75;;;;;;;;;;5074324;28;20025;-78
2021/04/03 12:59:40;;;;;;;10.98;1.45;;;;;;;;;;5075271;28;20028;-78
2021/04/03 13:02:06;;;;;;;7.78;2.00;;;;;;;;;;5059165;28;20376;-78
2021/04/03 13:04:33;;;;;;;4.18;1.50;;;;;;;;;;5077647;28;20081;-78
2021/04/03 13:06:59;;;;;;;7.07;2.10;;;;;;;;;;5077897;28;20535;-77
2021/04/03 13:09:25;;;;;;;15.45;2.53;;;;;;;;;;5077229;28;20395;-77
2021/04/03 13:11:51;;;;;;;9.85;1.90;;;;;;;;;;5077090;28;20048;-77
2021/04/03 13:14:17;;;;;;;10.40;2.10;;;;;;;;;;5041975;28;20044;-77
2021/04/03 13:16:43;;;;;;;10.68;2.35;;;;;;;;;;5057888;28;20056;-77
2021/04/03 13:19:09;;;;;;;15.13;2.15;;;;;;;;;;5057226;28;20029;-77
2021/04/03 13:21:35;;;;;;;5.07;1.13;;;;;;;;;;5039026;28;20037;-77
2021/04/03 13:24:01;;;;;;;9.57;1.80;;;;;;;;;;5057272;28;20104;-77
2021/04/03 13:26:27;;;;;;;5.45;1.40;;;;;;;;;;5057518;28;20445;-77
2021/04/03 13:28:54;;;;;;;4.72;1.52;;;;;;;;;;5057535;28;20033;-77
2021/04/03 13:31:20;;;;;;;5.20;2.10;;;;;;;;;;5057975;28;20021;-78
2021/04/03 13:33:46;;;;;;;4.72;1.60;;;;;;;;;;5056596;28;20036;-78
2021/04/03 13:36:12;;;;;;;2.72;1.65;;;;;;;;;;5039779;28;20029;-78
2021/04/03 13:38:38;;;;;;;4.28;1.50;;;;;;;;;;5057455;28;20029;-78
2021/04/03 13:41:04;;;;;;;3.83;1.50;;;;;;;;;;5057319;28;20502;-78
2021/04/03 13:43:31;;;;;;;5.35;1.80;;;;;;;;;;5057639;28;20104;-78
2021/04/03 13:45:57;;;;;;;4.10;1.60;;;;;;;;;;5057277;28;20052;-78
2021/04/03 13:48:23;;;;;;;6.22;1.83;;;;;;;;;;5057273;28;20035;-79
2021/04/03 13:50:49;;;;;;;8.20;2.03;;;;;;;;;;5057103;28;20017;-78
2021/04/03 13:53:16;;;;;;;2.90;2.03;;;;;;;;;;5056835;28;20021;-78
2021/04/03 13:55:42;;;;;;;5.35;1.80;;;;;;;;;;5057230;28;20053;-78
2021/04/03 13:58:08;;;;;;;9.38;2.10;;;;;;;;;;5039348;28;20029;-78
2021/04/03 14:00:34;;;;;;;8.00;2.00;;;;;;;;;;5056692;28;20032;-78
2021/04/03 14:03:00;;;;;;;8.70;1.80;;;;;;;;;;5057190;28;20033;-78
2021/04/03 14:05:26;;;;;;;7.82;3.45;;;;;;;;;;5056801;28;20032;-78
2021/04/03 14:07:52;;;;;;;4.22;1.60;;;;;;;;;;5039364;28;20523;-78
2021/04/03 14:10:18;;;;;;;6.50;2.80;;;;;;;;;;5055860;28;20040;-78
2021/04/03 14:12:44;;;;;;;5.32;2.08;;;;;;;;;;5060781;28;20048;-78
2021/04/03 14:15:10;;;;;;;7.68;2.45;;;;;;;;;;5076713;28;20038;-78
2021/04/03 14:17:37;;;;;;;4.80;2.03;;;;;;;;;;5076803;28;20088;-78
2021/04/03 14:20:04;;;;;;;7.18;2.33;;;;;;;;;;5076789;28;20051;-78
2021/04/03 14:22:30;;;;;;;5.95;2.33;;;;;;;;;;5076975;28;20082;-78
2021/04/03 14:24:56;;;;;;;4.40;2.15;;;;;;;;;;5076640;28;20035;-78
2021/04/03 14:27:22;;;;;;;4.88;1.73;;;;;;;;;;5076857;28;20031;-78
2021/04/03 14:29:48;;;;;;;7.85;2.47;;;;;;;;;;5075969;28;20052;-78
2021/04/03 14:32:14;;;;;;;7.70;2.05;;;;;;;;;;5076168;28;20078;-78
2021/04/03 14:34:40;;;;;;;7.07;2.38;;;;;;;;;;5076079;28;20024;-77
2021/04/03 14:37:06;;;;;;;9.80;2.42;;;;;;;;;;5076063;28;20029;-77